SCF7708 ZUUU-ZPLJ
Flight info
| Callsign | SCF7708 |
|---|---|
| Flight time | 1h 25m |
| Altitude | 30100 |
| Route | LUVEN9W LUVEN G212 SGM A599 GULOT W146 BUBSU W162 CEH |
| Aircraft | A320/M-SDE3FGHIRWY/LB1 |
Departure
| Time | 2026-05-05 05:16 |
|---|---|
| Airport | Chengdu Shuangliu International Airport (ZUUU) |
Arrival
| Time | 2026-05-05 06:41 |
|---|---|
| Airport | Lijiang Sanyi International Airport (ZPLJ) |
| Time | Latitude | Longitude | Altitude | Speed | Heading |
|---|---|---|---|---|---|
| 2026-05-05 04:56 | 30.58789 | 103.95527 | 1647 ft | 0 kts | 106° |
| 2026-05-05 05:10 | 30.58789 | 103.95526 | 1647 ft | 2 kts | 106° |
| 2026-05-05 05:10 | 30.58794 | 103.95507 | 1647 ft | 2 kts | 106° |
| 2026-05-05 05:10 | 30.58799 | 103.95488 | 1647 ft | 2 kts | 106° |
| 2026-05-05 05:11 | 30.58803 | 103.95469 | 1647 ft | 2 kts | 106° |
| 2026-05-05 05:11 | 30.58805 | 103.95449 | 1647 ft | 2 kts | 47° |
| 2026-05-05 05:11 | 30.58801 | 103.95444 | 1647 ft | 0 kts | 35° |
| 2026-05-05 05:13 | 30.58816 | 103.95457 | 1682 ft | 7 kts | 35° |
| 2026-05-05 05:13 | 30.58862 | 103.95485 | 1647 ft | 9 kts | 21° |
| 2026-05-05 05:13 | 30.58958 | 103.95529 | 1647 ft | 17 kts | 21° |
| 2026-05-05 05:13 | 30.59071 | 103.95580 | 1647 ft | 18 kts | 21° |
| 2026-05-05 05:14 | 30.59187 | 103.95634 | 1647 ft | 15 kts | 22° |
| 2026-05-05 05:14 | 30.59273 | 103.95602 | 1647 ft | 15 kts | 295° |
| 2026-05-05 05:14 | 30.59314 | 103.95492 | 1646 ft | 14 kts | 292° |
| 2026-05-05 05:14 | 30.59338 | 103.95399 | 1646 ft | 8 kts | 248° |
| 2026-05-05 05:15 | 30.59297 | 103.95372 | 1647 ft | 6 kts | 200° |
| 2026-05-05 05:15 | 30.59290 | 103.95369 | 1647 ft | 0 kts | 202° |
| 2026-05-05 05:15 | 30.59269 | 103.95359 | 1648 ft | 15 kts | 202° |
| 2026-05-05 05:15 | 30.58932 | 103.95202 | 1650 ft | 87 kts | 201° |
| 2026-05-05 05:16 | 30.58178 | 103.94853 | 1647 ft | 144 kts | 201° |
| 2026-05-05 05:16 | 30.57106 | 103.94359 | 1707 ft | 182 kts | 201° |
| 2026-05-05 05:16 | 30.55912 | 103.93802 | 2297 ft | 188 kts | 201° |
| 2026-05-05 05:16 | 30.54696 | 103.93226 | 2886 ft | 195 kts | 200° |
| 2026-05-05 05:17 | 30.53381 | 103.92610 | 3134 ft | 213 kts | 200° |
| 2026-05-05 05:17 | 30.51928 | 103.91930 | 3408 ft | 237 kts | 200° |
| 2026-05-05 05:17 | 30.50317 | 103.91187 | 3795 ft | 259 kts | 199° |
| 2026-05-05 05:17 | 30.48611 | 103.90398 | 4468 ft | 268 kts | 201° |
| 2026-05-05 05:18 | 30.46880 | 103.89579 | 5394 ft | 270 kts | 200° |
| 2026-05-05 05:18 | 30.45131 | 103.88763 | 6300 ft | 272 kts | 200° |
| 2026-05-05 05:18 | 30.43368 | 103.87948 | 7108 ft | 274 kts | 201° |
| 2026-05-05 05:18 | 30.41592 | 103.87133 | 7922 ft | 276 kts | 201° |
| 2026-05-05 05:19 | 30.39800 | 103.86308 | 8742 ft | 278 kts | 202° |
| 2026-05-05 05:19 | 30.38000 | 103.85473 | 9545 ft | 281 kts | 202° |
| 2026-05-05 05:19 | 30.36170 | 103.84623 | 10206 ft | 286 kts | 203° |
| 2026-05-05 05:19 | 30.34249 | 103.83734 | 10451 ft | 309 kts | 203° |
| 2026-05-05 05:20 | 30.32183 | 103.82778 | 10613 ft | 332 kts | 202° |
| 2026-05-05 05:20 | 30.29969 | 103.81754 | 10726 ft | 353 kts | 202° |
| 2026-05-05 05:20 | 30.27634 | 103.80681 | 10892 ft | 366 kts | 201° |
| 2026-05-05 05:20 | 30.25159 | 103.79934 | 10961 ft | 370 kts | 189° |
| 2026-05-05 05:21 | 30.22581 | 103.79800 | 10955 ft | 373 kts | 177° |
| 2026-05-05 05:21 | 30.20023 | 103.80302 | 10960 ft | 375 kts | 165° |
| 2026-05-05 05:21 | 30.17598 | 103.81418 | 10963 ft | 377 kts | 154° |
| 2026-05-05 05:21 | 30.15255 | 103.82794 | 10961 ft | 378 kts | 155° |
| 2026-05-05 05:22 | 30.12912 | 103.84155 | 10963 ft | 378 kts | 155° |
| 2026-05-05 05:22 | 30.10562 | 103.85511 | 10954 ft | 377 kts | 155° |
| 2026-05-05 05:22 | 30.08242 | 103.86844 | 10952 ft | 376 kts | 155° |
| 2026-05-05 05:22 | 30.05874 | 103.88209 | 10955 ft | 375 kts | 155° |
| 2026-05-05 05:23 | 30.03573 | 103.89544 | 10959 ft | 376 kts | 155° |
| 2026-05-05 05:23 | 30.01218 | 103.90918 | 11472 ft | 380 kts | 155° |
| 2026-05-05 05:23 | 29.98853 | 103.92302 | 12102 ft | 383 kts | 155° |
| 2026-05-05 05:23 | 29.96464 | 103.93698 | 12663 ft | 387 kts | 155° |
| 2026-05-05 05:24 | 29.94045 | 103.95108 | 13216 ft | 391 kts | 155° |
| 2026-05-05 05:24 | 29.91615 | 103.96522 | 13757 ft | 395 kts | 154° |
| 2026-05-05 05:24 | 29.89151 | 103.97956 | 14234 ft | 399 kts | 154° |
| 2026-05-05 05:24 | 29.86662 | 103.99403 | 14680 ft | 403 kts | 154° |
| 2026-05-05 05:25 | 29.84152 | 104.00863 | 15130 ft | 406 kts | 154° |
| 2026-05-05 05:25 | 29.81620 | 104.02336 | 15575 ft | 410 kts | 154° |
| 2026-05-05 05:25 | 29.78994 | 104.03645 | 16009 ft | 412 kts | 163° |
| 2026-05-05 05:25 | 29.76202 | 104.04435 | 16434 ft | 414 kts | 173° |
| 2026-05-05 05:26 | 29.73327 | 104.04675 | 16880 ft | 416 kts | 182° |
| 2026-05-05 05:26 | 29.70426 | 104.04564 | 17310 ft | 419 kts | 184° |
| 2026-05-05 05:26 | 29.67504 | 104.04446 | 17728 ft | 422 kts | 184° |
| 2026-05-05 05:26 | 29.64558 | 104.04327 | 18127 ft | 425 kts | 184° |
| 2026-05-05 05:27 | 29.61588 | 104.04210 | 18484 ft | 428 kts | 184° |
| 2026-05-05 05:27 | 29.58602 | 104.04093 | 18861 ft | 430 kts | 184° |
| 2026-05-05 05:27 | 29.52582 | 104.03861 | 19614 ft | 435 kts | 184° |
| 2026-05-05 05:28 | 29.49552 | 104.03744 | 19979 ft | 437 kts | 184° |
| 2026-05-05 05:28 | 29.46504 | 104.03626 | 20352 ft | 439 kts | 184° |
| 2026-05-05 05:28 | 29.43440 | 104.03509 | 20712 ft | 442 kts | 184° |
| 2026-05-05 05:28 | 29.40374 | 104.03394 | 21060 ft | 444 kts | 184° |
| 2026-05-05 05:29 | 29.37278 | 104.03296 | 21419 ft | 446 kts | 183° |
| 2026-05-05 05:29 | 29.34165 | 104.03277 | 21762 ft | 449 kts | 182° |
| 2026-05-05 05:29 | 29.31037 | 104.03324 | 22103 ft | 451 kts | 181° |
| 2026-05-05 05:29 | 29.27888 | 104.03407 | 22438 ft | 453 kts | 181° |
| 2026-05-05 05:30 | 29.24729 | 104.03497 | 22760 ft | 456 kts | 181° |
| 2026-05-05 05:30 | 29.21549 | 104.03576 | 23080 ft | 458 kts | 181° |
| 2026-05-05 05:30 | 29.18358 | 104.03639 | 23392 ft | 460 kts | 182° |
| 2026-05-05 05:30 | 29.15158 | 104.03687 | 23659 ft | 462 kts | 182° |
| 2026-05-05 05:31 | 29.11937 | 104.03727 | 23914 ft | 464 kts | 182° |
| 2026-05-05 05:31 | 29.11528 | 104.03732 | 23950 ft | 464 kts | 182° |
| 2026-05-05 05:31 | 29.08292 | 104.03771 | 24185 ft | 466 kts | 182° |
| 2026-05-05 05:31 | 29.05081 | 104.03812 | 24431 ft | 468 kts | 182° |
| 2026-05-05 05:32 | 29.01816 | 104.03855 | 24671 ft | 471 kts | 182° |
| 2026-05-05 05:32 | 28.98539 | 104.03898 | 24902 ft | 473 kts | 182° |
| 2026-05-05 05:32 | 28.95238 | 104.03944 | 25132 ft | 475 kts | 182° |
| 2026-05-05 05:32 | 28.91927 | 104.03993 | 25349 ft | 477 kts | 182° |
| 2026-05-05 05:33 | 28.88601 | 104.04043 | 25569 ft | 479 kts | 182° |
| 2026-05-05 05:33 | 28.85255 | 104.04092 | 25788 ft | 481 kts | 182° |
| 2026-05-05 05:33 | 28.81901 | 104.04139 | 26026 ft | 483 kts | 182° |
| 2026-05-05 05:33 | 28.78536 | 104.04186 | 26240 ft | 485 kts | 182° |
| 2026-05-05 05:34 | 28.75155 | 104.04231 | 26456 ft | 487 kts | 182° |
| 2026-05-05 05:34 | 28.71759 | 104.04277 | 26700 ft | 488 kts | 182° |
| 2026-05-05 05:34 | 28.68367 | 104.04323 | 27006 ft | 487 kts | 182° |
| 2026-05-05 05:34 | 28.64983 | 104.04368 | 27218 ft | 486 kts | 182° |
| 2026-05-05 05:35 | 28.61616 | 104.04314 | 27369 ft | 483 kts | 188° |
| 2026-05-05 05:35 | 28.58316 | 104.03676 | 27640 ft | 479 kts | 198° |
| 2026-05-05 05:35 | 28.55183 | 104.02444 | 27948 ft | 475 kts | 207° |
| 2026-05-05 05:35 | 28.52280 | 104.00702 | 28298 ft | 470 kts | 216° |
| 2026-05-05 05:36 | 28.49508 | 103.98726 | 28614 ft | 470 kts | 216° |
| 2026-05-05 05:36 | 28.46733 | 103.96765 | 28936 ft | 469 kts | 215° |
| 2026-05-05 05:36 | 28.43959 | 103.94814 | 29268 ft | 469 kts | 216° |
| 2026-05-05 05:36 | 28.41185 | 103.92868 | 29591 ft | 468 kts | 216° |
| 2026-05-05 05:37 | 28.38410 | 103.90922 | 29807 ft | 469 kts | 216° |
| 2026-05-05 05:37 | 28.35638 | 103.88978 | 29828 ft | 468 kts | 216° |
| 2026-05-05 05:37 | 28.30137 | 103.85113 | 29817 ft | 468 kts | 216° |
| 2026-05-05 05:38 | 28.24606 | 103.81216 | 29813 ft | 468 kts | 216° |
| 2026-05-05 05:38 | 28.19071 | 103.77326 | 29824 ft | 468 kts | 216° |
| 2026-05-05 05:39 | 28.13539 | 103.73451 | 29825 ft | 468 kts | 216° |
| 2026-05-05 05:39 | 28.08003 | 103.69583 | 29823 ft | 468 kts | 216° |
| 2026-05-05 05:40 | 28.02469 | 103.65712 | 29824 ft | 468 kts | 216° |
| 2026-05-05 05:40 | 27.96931 | 103.61844 | 29853 ft | 467 kts | 216° |
| 2026-05-05 05:41 | 27.91406 | 103.57991 | 29855 ft | 466 kts | 216° |
| 2026-05-05 05:41 | 27.85888 | 103.54147 | 29889 ft | 466 kts | 216° |
| 2026-05-05 05:42 | 27.80364 | 103.50300 | 29889 ft | 466 kts | 216° |
| 2026-05-05 05:42 | 27.74831 | 103.46452 | 29920 ft | 467 kts | 216° |
| 2026-05-05 05:43 | 27.69292 | 103.42605 | 29912 ft | 467 kts | 216° |
| 2026-05-05 05:43 | 27.63740 | 103.38765 | 29931 ft | 468 kts | 216° |
| 2026-05-05 05:44 | 27.58191 | 103.34937 | 29935 ft | 468 kts | 216° |
| 2026-05-05 05:44 | 27.52650 | 103.31100 | 29938 ft | 468 kts | 216° |
| 2026-05-05 05:45 | 27.47107 | 103.27258 | 29945 ft | 468 kts | 216° |
| 2026-05-05 05:45 | 27.41217 | 103.24068 | 29958 ft | 473 kts | 205° |
| 2026-05-05 05:46 | 27.35087 | 103.21372 | 29953 ft | 473 kts | 205° |
| 2026-05-05 05:46 | 27.29004 | 103.18686 | 29975 ft | 472 kts | 206° |
| 2026-05-05 05:47 | 27.22892 | 103.15978 | 29979 ft | 472 kts | 206° |
| 2026-05-05 05:47 | 27.16773 | 103.13271 | 29972 ft | 473 kts | 205° |
| 2026-05-05 05:48 | 27.10663 | 103.10574 | 29989 ft | 471 kts | 205° |
| 2026-05-05 05:48 | 27.04563 | 103.07885 | 30003 ft | 471 kts | 205° |
| 2026-05-05 05:49 | 26.98469 | 103.05201 | 30005 ft | 471 kts | 205° |
| 2026-05-05 05:49 | 26.92375 | 103.02517 | 30016 ft | 471 kts | 205° |
| 2026-05-05 05:50 | 26.86246 | 102.99821 | 30016 ft | 472 kts | 206° |
| 2026-05-05 05:50 | 26.80149 | 102.97143 | 30032 ft | 470 kts | 206° |
| 2026-05-05 05:51 | 26.74062 | 102.94467 | 30050 ft | 470 kts | 206° |
| 2026-05-05 05:51 | 26.67980 | 102.91807 | 30046 ft | 469 kts | 206° |
| 2026-05-05 05:52 | 26.61905 | 102.89147 | 30065 ft | 469 kts | 205° |
| 2026-05-05 05:52 | 26.55827 | 102.86488 | 30067 ft | 469 kts | 206° |
| 2026-05-05 05:53 | 26.49754 | 102.83840 | 30084 ft | 468 kts | 206° |
| 2026-05-05 05:53 | 26.43689 | 102.81195 | 30078 ft | 468 kts | 206° |
| 2026-05-05 05:54 | 26.37624 | 102.78556 | 30098 ft | 468 kts | 206° |
| 2026-05-05 05:54 | 26.31549 | 102.75912 | 30106 ft | 469 kts | 205° |
| 2026-05-05 05:55 | 26.25507 | 102.73284 | 30130 ft | 469 kts | 206° |
| 2026-05-05 05:55 | 26.19435 | 102.70653 | 30121 ft | 468 kts | 206° |
| 2026-05-05 05:56 | 26.13146 | 102.68609 | 30138 ft | 477 kts | 192° |
| 2026-05-05 05:56 | 26.06568 | 102.67578 | 30133 ft | 477 kts | 192° |
| 2026-05-05 05:57 | 25.99987 | 102.66529 | 30135 ft | 477 kts | 193° |
| 2026-05-05 05:57 | 25.93425 | 102.65478 | 30165 ft | 476 kts | 193° |
| 2026-05-05 05:58 | 25.87972 | 102.64611 | 30164 ft | 476 kts | 193° |
| 2026-05-05 05:58 | 25.81413 | 102.63569 | 30174 ft | 476 kts | 193° |
| 2026-05-05 05:59 | 25.74861 | 102.62523 | 30157 ft | 475 kts | 193° |
| 2026-05-05 05:59 | 25.68321 | 102.61483 | 30165 ft | 474 kts | 193° |
| 2026-05-05 06:00 | 25.61780 | 102.60447 | 30167 ft | 475 kts | 193° |
| 2026-05-05 06:00 | 25.55237 | 102.59413 | 30183 ft | 475 kts | 193° |
| 2026-05-05 06:01 | 25.48680 | 102.58387 | 30178 ft | 476 kts | 193° |
| 2026-05-05 06:01 | 25.42125 | 102.57357 | 30182 ft | 476 kts | 193° |
| 2026-05-05 06:02 | 25.35578 | 102.56317 | 30182 ft | 475 kts | 193° |
| 2026-05-05 06:02 | 25.29045 | 102.55277 | 30189 ft | 474 kts | 193° |
| 2026-05-05 06:03 | 25.22516 | 102.54250 | 30190 ft | 474 kts | 193° |
| 2026-05-05 06:03 | 25.15993 | 102.53193 | 30189 ft | 472 kts | 197° |
| 2026-05-05 06:04 | 25.12884 | 102.52163 | 30187 ft | 463 kts | 208° |
| 2026-05-05 06:04 | 25.10047 | 102.50547 | 30173 ft | 455 kts | 218° |
| 2026-05-05 06:04 | 25.05506 | 102.45885 | 30171 ft | 443 kts | 237° |
| 2026-05-05 06:05 | 25.02486 | 102.40038 | 30159 ft | 438 kts | 245° |
| 2026-05-05 06:05 | 24.99655 | 102.34090 | 30170 ft | 438 kts | 245° |
| 2026-05-05 06:06 | 24.96813 | 102.28140 | 30146 ft | 439 kts | 245° |
| 2026-05-05 06:06 | 24.93969 | 102.22183 | 30146 ft | 439 kts | 245° |
| 2026-05-05 06:07 | 24.91125 | 102.16235 | 30122 ft | 439 kts | 245° |
| 2026-05-05 06:07 | 24.88275 | 102.10279 | 30124 ft | 439 kts | 245° |
| 2026-05-05 06:08 | 24.85425 | 102.04336 | 30123 ft | 439 kts | 245° |
| 2026-05-05 06:08 | 24.82571 | 101.98393 | 30105 ft | 439 kts | 245° |
| 2026-05-05 06:09 | 24.79710 | 101.92447 | 30102 ft | 440 kts | 245° |
| 2026-05-05 06:09 | 24.76850 | 101.86499 | 30086 ft | 440 kts | 245° |
| 2026-05-05 06:10 | 24.74012 | 101.80585 | 30081 ft | 440 kts | 245° |
| 2026-05-05 06:10 | 24.71145 | 101.74641 | 30067 ft | 439 kts | 245° |
| 2026-05-05 06:11 | 24.68276 | 101.68705 | 30065 ft | 440 kts | 244° |
| 2026-05-05 06:11 | 24.65446 | 101.62739 | 30062 ft | 439 kts | 249° |
| 2026-05-05 06:12 | 24.63913 | 101.56300 | 30055 ft | 436 kts | 266° |
| 2026-05-05 06:12 | 24.64302 | 101.49674 | 30052 ft | 436 kts | 282° |
| 2026-05-05 06:13 | 24.66059 | 101.43287 | 30042 ft | 437 kts | 286° |
| 2026-05-05 06:13 | 24.67869 | 101.36899 | 30042 ft | 438 kts | 286° |
| 2026-05-05 06:14 | 24.69667 | 101.30496 | 30035 ft | 438 kts | 286° |
| 2026-05-05 06:14 | 24.71466 | 101.24073 | 30035 ft | 440 kts | 286° |
| 2026-05-05 06:15 | 24.73277 | 101.17636 | 30033 ft | 441 kts | 286° |
| 2026-05-05 06:15 | 24.75083 | 101.11197 | 30031 ft | 441 kts | 285° |
| 2026-05-05 06:16 | 24.76885 | 101.04750 | 30032 ft | 441 kts | 286° |
| 2026-05-05 06:16 | 24.78685 | 100.98304 | 30023 ft | 441 kts | 286° |
| 2026-05-05 06:17 | 24.80484 | 100.91859 | 30023 ft | 440 kts | 285° |
| 2026-05-05 06:17 | 24.82274 | 100.85415 | 30018 ft | 440 kts | 285° |
| 2026-05-05 06:18 | 24.84061 | 100.78963 | 30019 ft | 441 kts | 285° |
| 2026-05-05 06:18 | 24.85848 | 100.72504 | 30017 ft | 441 kts | 286° |
| 2026-05-05 06:19 | 24.87648 | 100.66050 | 30000 ft | 441 kts | 285° |
| 2026-05-05 06:19 | 24.89444 | 100.59582 | 30005 ft | 441 kts | 285° |
| 2026-05-05 06:20 | 24.91222 | 100.53112 | 29992 ft | 442 kts | 285° |
| 2026-05-05 06:20 | 24.92987 | 100.46668 | 29992 ft | 443 kts | 285° |
| 2026-05-05 06:21 | 24.94761 | 100.40176 | 29978 ft | 442 kts | 285° |
| 2026-05-05 06:21 | 24.96639 | 100.33717 | 29978 ft | 444 kts | 292° |
| 2026-05-05 06:22 | 24.98213 | 100.30787 | 29977 ft | 447 kts | 306° |
| 2026-05-05 06:22 | 25.00388 | 100.28318 | 29976 ft | 452 kts | 318° |
| 2026-05-05 06:22 | 25.03056 | 100.26453 | 29966 ft | 460 kts | 331° |
| 2026-05-05 06:22 | 25.06099 | 100.25303 | 29916 ft | 469 kts | 344° |
| 2026-05-05 06:23 | 25.09373 | 100.24990 | 29646 ft | 479 kts | 359° |
| 2026-05-05 06:23 | 25.12710 | 100.25395 | 29382 ft | 483 kts | 3° |
| 2026-05-05 06:23 | 25.16045 | 100.25866 | 29122 ft | 484 kts | 3° |
| 2026-05-05 06:23 | 25.19389 | 100.26333 | 28863 ft | 484 kts | 3° |
| 2026-05-05 06:24 | 25.22733 | 100.26789 | 28602 ft | 484 kts | 3° |
| 2026-05-05 06:24 | 25.26073 | 100.27237 | 28348 ft | 484 kts | 3° |
| 2026-05-05 06:24 | 25.29420 | 100.27680 | 28109 ft | 485 kts | 3° |
| 2026-05-05 06:24 | 25.32769 | 100.28119 | 27874 ft | 485 kts | 3° |
| 2026-05-05 06:25 | 25.36118 | 100.28556 | 27619 ft | 485 kts | 3° |
| 2026-05-05 06:25 | 25.39475 | 100.28998 | 27371 ft | 486 kts | 3° |
| 2026-05-05 06:25 | 25.42828 | 100.29444 | 27125 ft | 486 kts | 3° |
| 2026-05-05 06:25 | 25.46188 | 100.29897 | 26884 ft | 486 kts | 3° |
| 2026-05-05 06:26 | 25.49546 | 100.30348 | 26643 ft | 487 kts | 3° |
| 2026-05-05 06:26 | 25.52908 | 100.30798 | 26392 ft | 487 kts | 3° |
| 2026-05-05 06:26 | 25.56276 | 100.31248 | 26161 ft | 487 kts | 3° |
| 2026-05-05 06:26 | 25.59640 | 100.31697 | 25944 ft | 487 kts | 3° |
| 2026-05-05 06:27 | 25.63003 | 100.32176 | 25708 ft | 488 kts | 6° |
| 2026-05-05 06:27 | 25.69555 | 100.34346 | 25243 ft | 494 kts | 15° |
| 2026-05-05 06:27 | 25.72802 | 100.35614 | 25014 ft | 495 kts | 15° |
| 2026-05-05 06:28 | 25.76053 | 100.36880 | 24786 ft | 495 kts | 15° |
| 2026-05-05 06:28 | 25.79307 | 100.38141 | 24554 ft | 496 kts | 15° |
| 2026-05-05 06:28 | 25.82568 | 100.39406 | 24331 ft | 496 kts | 15° |
| 2026-05-05 06:28 | 25.85825 | 100.40673 | 24114 ft | 497 kts | 15° |
| 2026-05-05 06:29 | 25.89095 | 100.41949 | 23897 ft | 497 kts | 15° |
| 2026-05-05 06:29 | 25.92357 | 100.43223 | 23686 ft | 496 kts | 15° |
| 2026-05-05 06:29 | 25.95608 | 100.44494 | 23458 ft | 495 kts | 15° |
| 2026-05-05 06:29 | 25.98853 | 100.45762 | 22971 ft | 493 kts | 15° |
| 2026-05-05 06:30 | 26.02072 | 100.47018 | 22298 ft | 488 kts | 15° |
| 2026-05-05 06:30 | 26.05265 | 100.48264 | 21634 ft | 484 kts | 15° |
| 2026-05-05 06:30 | 26.08485 | 100.49186 | 20975 ft | 472 kts | 4° |
| 2026-05-05 06:30 | 26.11718 | 100.49249 | 20330 ft | 460 kts | 349° |
| 2026-05-05 06:31 | 26.14792 | 100.48466 | 19694 ft | 449 kts | 336° |
| 2026-05-05 06:31 | 26.17543 | 100.46923 | 19082 ft | 440 kts | 323° |
| 2026-05-05 06:31 | 26.19864 | 100.44755 | 18479 ft | 432 kts | 310° |
| 2026-05-05 06:31 | 26.21651 | 100.42129 | 17820 ft | 420 kts | 298° |
| 2026-05-05 06:32 | 26.22922 | 100.39312 | 17134 ft | 397 kts | 294° |
| 2026-05-05 06:32 | 26.24076 | 100.36600 | 16466 ft | 379 kts | 293° |
| 2026-05-05 06:32 | 26.25179 | 100.34002 | 15808 ft | 364 kts | 293° |
| 2026-05-05 06:32 | 26.26226 | 100.31530 | 15171 ft | 351 kts | 294° |
| 2026-05-05 06:33 | 26.27259 | 100.29087 | 14656 ft | 333 kts | 294° |
| 2026-05-05 06:33 | 26.28205 | 100.26857 | 14598 ft | 304 kts | 294° |
| 2026-05-05 06:33 | 26.29077 | 100.24801 | 14516 ft | 283 kts | 294° |
| 2026-05-05 06:33 | 26.29877 | 100.22904 | 14413 ft | 265 kts | 293° |
| 2026-05-05 06:34 | 26.30636 | 100.21103 | 14311 ft | 248 kts | 293° |
| 2026-05-05 06:34 | 26.31349 | 100.19418 | 14215 ft | 237 kts | 293° |
| 2026-05-05 06:34 | 26.32046 | 100.17763 | 14126 ft | 236 kts | 293° |
| 2026-05-05 06:34 | 26.32824 | 100.16176 | 14027 ft | 233 kts | 306° |
| 2026-05-05 06:35 | 26.34003 | 100.14933 | 13891 ft | 237 kts | 323° |
| 2026-05-05 06:35 | 26.35555 | 100.14172 | 13302 ft | 255 kts | 343° |
| 2026-05-05 06:35 | 26.37372 | 100.14174 | 12801 ft | 265 kts | 8° |
| 2026-05-05 06:35 | 26.39116 | 100.14747 | 12444 ft | 257 kts | 12° |
| 2026-05-05 06:36 | 26.40804 | 100.15324 | 12123 ft | 253 kts | 14° |
| 2026-05-05 06:36 | 26.42485 | 100.15894 | 11784 ft | 251 kts | 11° |
| 2026-05-05 06:36 | 26.44128 | 100.16452 | 11480 ft | 244 kts | 13° |
| 2026-05-05 06:36 | 26.45749 | 100.17002 | 11165 ft | 242 kts | 12° |
| 2026-05-05 06:37 | 26.47333 | 100.17542 | 10883 ft | 232 kts | 11° |
| 2026-05-05 06:37 | 26.48843 | 100.18056 | 10589 ft | 222 kts | 11° |
| 2026-05-05 06:37 | 26.50289 | 100.18547 | 10320 ft | 213 kts | 12° |
| 2026-05-05 06:37 | 26.51678 | 100.19019 | 10067 ft | 204 kts | 13° |
| 2026-05-05 06:38 | 26.53011 | 100.19472 | 9845 ft | 196 kts | 13° |
| 2026-05-05 06:38 | 26.54282 | 100.19905 | 9652 ft | 185 kts | 12° |
| 2026-05-05 06:38 | 26.55489 | 100.20315 | 9460 ft | 177 kts | 12° |
| 2026-05-05 06:38 | 26.56658 | 100.20712 | 9105 ft | 176 kts | 14° |
| 2026-05-05 06:39 | 26.57814 | 100.21105 | 8865 ft | 171 kts | 15° |
| 2026-05-05 06:39 | 26.58956 | 100.21493 | 8649 ft | 172 kts | 15° |
| 2026-05-05 06:39 | 26.60096 | 100.21881 | 8481 ft | 170 kts | 16° |
| 2026-05-05 06:39 | 26.61217 | 100.22262 | 8309 ft | 167 kts | 14° |
| 2026-05-05 06:40 | 26.62331 | 100.22642 | 8139 ft | 168 kts | 12° |
| 2026-05-05 06:40 | 26.63451 | 100.23041 | 7973 ft | 169 kts | 18° |
| 2026-05-05 06:40 | 26.64589 | 100.23423 | 7755 ft | 172 kts | 12° |
| 2026-05-05 06:40 | 26.65725 | 100.23805 | 7507 ft | 168 kts | 12° |
| 2026-05-05 06:41 | 26.66834 | 100.24185 | 7315 ft | 165 kts | 12° |
| 2026-05-05 06:41 | 26.67834 | 100.24514 | 7296 ft | 131 kts | 16° |
| 2026-05-05 06:41 | 26.68531 | 100.24758 | 7299 ft | 72 kts | 17° |
| 2026-05-05 06:41 | 26.68838 | 100.24861 | 7297 ft | 29 kts | 17° |
| 2026-05-05 06:42 | 26.68923 | 100.24889 | 7297 ft | 16 kts | 18° |
| 2026-05-05 06:42 | 26.68960 | 100.25009 | 7297 ft | 13 kts | 108° |
| 2026-05-05 06:42 | 26.68932 | 100.25061 | 7298 ft | 11 kts | 144° |
| 2026-05-05 06:42 | 26.68853 | 100.25050 | 7297 ft | 14 kts | 197° |
| 2026-05-05 06:43 | 26.68755 | 100.25017 | 7296 ft | 15 kts | 197° |
| 2026-05-05 06:43 | 26.68606 | 100.24965 | 7295 ft | 19 kts | 197° |
| 2026-05-05 06:43 | 26.68515 | 100.24935 | 7295 ft | 23 kts | 197° |
| 2026-05-05 06:43 | 26.68331 | 100.24873 | 7295 ft | 32 kts | 197° |
| 2026-05-05 06:44 | 26.68120 | 100.24800 | 7297 ft | 31 kts | 197° |
| 2026-05-05 06:44 | 26.67916 | 100.24731 | 7296 ft | 30 kts | 197° |
| 2026-05-05 06:44 | 26.67718 | 100.24665 | 7296 ft | 29 kts | 197° |
| 2026-05-05 06:44 | 26.67530 | 100.24600 | 7296 ft | 23 kts | 197° |
| 2026-05-05 06:45 | 26.67443 | 100.24617 | 7296 ft | 11 kts | 110° |
| 2026-05-05 06:45 | 26.67436 | 100.24647 | 7296 ft | 0 kts | 106° |